Time;durP1;ratioP1;P1;durP2;ratioP2;P2;SDS_P1;SDS_P2;PMS_P1;PMS_P2;Temp;Humidity;BMP_temperature;BMP_pressure;BME280_temperature;BME280_humidity;BME280_pressure;Samples;Min_cycle;Max_cycle;Signal;HPM_P1;HPM_P2
2021/05/05 00:00:53;;;;;;;5.88;1.98;;;9.60;99.90;;;;;;2088141;28;20083;-68
2021/05/05 00:01:56;;;;;;;5.88;2.25;;;9.50;99.90;;;;;;2080529;28;20100;-68
2021/05/05 00:02:57;;;;;;;4.95;2.08;;;9.50;99.90;;;;;;2084278;28;20024;-68
2021/05/05 00:03:57;;;;;;;3.45;1.83;;;9.50;99.90;;;;;;2088612;28;20031;-68
2021/05/05 00:04:58;;;;;;;3.05;1.80;;;9.60;99.90;;;;;;2089109;28;20036;-68
2021/05/05 00:05:59;;;;;;;5.38;1.90;;;9.50;99.90;;;;;;2085936;28;20083;-68
2021/05/05 00:06:59;;;;;;;4.13;1.88;;;9.50;99.90;;;;;;2080511;28;20075;-68
2021/05/05 00:08:00;;;;;;;3.90;1.55;;;9.50;99.90;;;;;;2086104;28;20075;-68
2021/05/05 00:09:00;;;;;;;4.47;1.95;;;9.50;99.90;;;;;;2088201;28;20028;-68
2021/05/05 00:10:02;;;;;;;3.42;2.05;;;9.50;99.90;;;;;;2087832;28;20032;-68
2021/05/05 00:11:03;;;;;;;3.92;2.38;;;9.50;99.90;;;;;;2089062;28;20027;-68
2021/05/05 00:12:04;;;;;;;4.32;1.80;;;9.50;99.90;;;;;;2080460;28;20036;-68
2021/05/05 00:13:04;;;;;;;6.18;2.03;;;9.50;99.90;;;;;;2080198;28;20056;-68
2021/05/05 00:14:05;;;;;;;4.47;2.00;;;9.50;99.90;;;;;;2082588;28;20022;-68
2021/05/05 00:15:12;;;;;;;4.15;2.00;;;9.50;99.90;;;;;;2088594;28;20028;-69
2021/05/05 00:16:13;;;;;;;6.10;1.95;;;9.50;99.90;;;;;;2087118;28;20057;-68
2021/05/05 00:17:14;;;;;;;4.90;2.10;;;9.50;99.90;;;;;;2081963;28;20026;-68
2021/05/05 00:18:14;;;;;;;4.22;1.60;;;9.50;99.90;;;;;;2088338;28;20475;-68
2021/05/05 00:19:15;;;;;;;3.33;1.75;;;9.50;99.90;;;;;;2088472;28;20117;-68
2021/05/05 00:20:17;;;;;;;7.07;1.65;;;9.50;99.90;;;;;;2088557;28;20029;-68
2021/05/05 00:21:17;;;;;;;2.88;1.88;;;9.50;99.90;;;;;;2088375;28;20025;-68
2021/05/05 00:22:18;;;;;;;3.70;1.92;;;9.50;99.90;;;;;;2087620;28;20107;-68
2021/05/05 00:23:19;;;;;;;3.28;1.85;;;9.50;99.90;;;;;;2088498;28;20036;-68
2021/05/05 00:24:19;;;;;;;5.63;1.85;;;9.50;99.90;;;;;;2088235;28;20142;-68
2021/05/05 00:25:20;;;;;;;3.35;1.65;;;9.50;99.90;;;;;;2088053;28;20733;-68
2021/05/05 00:26:21;;;;;;;4.28;1.85;;;9.50;99.90;;;;;;2088129;28;20029;-68
2021/05/05 00:27:21;;;;;;;3.47;2.00;;;9.50;99.90;;;;;;2081437;28;20037;-68
2021/05/05 00:28:22;;;;;;;2.92;1.80;;;9.50;99.90;;;;;;2079915;28;20061;-68
2021/05/05 00:29:23;;;;;;;3.15;1.35;;;9.50;99.90;;;;;;2079962;28;20105;-68
2021/05/05 00:30:24;;;;;;;2.08;1.40;;;9.50;99.90;;;;;;2083502;28;20440;-68
2021/05/05 00:31:26;;;;;;;2.40;1.88;;;9.50;99.90;;;;;;2087790;28;20353;-68
2021/05/05 00:32:26;;;;;;;4.35;1.95;;;9.50;99.90;;;;;;2087115;28;20028;-68
2021/05/05 00:33:27;;;;;;;2.92;1.35;;;9.50;99.90;;;;;;2088358;28;20098;-68
2021/05/05 00:34:28;;;;;;;4.47;1.92;;;9.50;99.90;;;;;;2088248;28;20101;-68
2021/05/05 00:35:28;;;;;;;2.88;1.75;;;9.50;99.90;;;;;;2088165;28;20401;-68
2021/05/05 00:36:29;;;;;;;3.40;1.55;;;9.50;99.90;;;;;;2088468;28;20029;-68
2021/05/05 00:37:30;;;;;;;2.40;1.65;;;9.50;99.90;;;;;;2088315;28;20025;-68
2021/05/05 00:38:30;;;;;;;4.15;1.60;;;9.50;99.90;;;;;;2088253;28;20029;-68
2021/05/05 00:39:31;;;;;;;4.47;2.00;;;9.50;99.90;;;;;;2088090;28;20025;-68
2021/05/05 00:40:32;;;;;;;3.25;1.52;;;9.50;99.90;;;;;;2081977;28;20514;-68
2021/05/05 00:41:33;;;;;;;1.88;1.65;;;9.50;99.90;;;;;;2079907;28;20037;-68
2021/05/05 00:42:34;;;;;;;8.73;1.98;;;9.50;99.90;;;;;;2079534;28;20053;-68
2021/05/05 00:43:35;;;;;;;5.63;2.20;;;9.50;99.90;;;;;;2085036;28;20032;-69
2021/05/05 00:44:37;;;;;;;5.03;2.03;;;9.50;99.90;;;;;;2086189;28;20372;-68
2021/05/05 00:45:38;;;;;;;4.15;1.73;;;9.50;99.90;;;;;;2080189;28;20037;-68
2021/05/05 00:46:39;;;;;;;7.13;2.00;;;9.50;99.90;;;;;;2083675;28;20036;-68
2021/05/05 00:47:41;;;;;;;2.70;1.60;;;9.50;99.90;;;;;;2088276;28;20033;-68
2021/05/05 00:48:41;;;;;;;2.13;1.50;;;9.50;99.90;;;;;;2087880;28;20060;-68
2021/05/05 00:49:42;;;;;;;3.58;1.63;;;9.50;99.90;;;;;;2088142;28;20028;-68
2021/05/05 00:50:43;;;;;;;4.68;1.73;;;9.50;99.90;;;;;;2088285;28;20623;-68
2021/05/05 00:51:44;;;;;;;5.03;1.67;;;9.50;99.90;;;;;;2082850;28;20055;-68
2021/05/05 00:52:46;;;;;;;4.72;1.63;;;9.50;99.90;;;;;;2079289;28;20037;-68
2021/05/05 00:53:47;;;;;;;4.50;1.80;;;9.50;99.90;;;;;;2088059;28;20119;-68
2021/05/05 00:54:47;;;;;;;2.50;1.20;;;9.50;99.90;;;;;;2088423;28;20025;-68
2021/05/05 00:55:48;;;;;;;3.90;1.75;;;9.50;99.90;;;;;;2088031;28;20025;-68
2021/05/05 00:56:49;;;;;;;2.63;1.65;;;9.40;99.90;;;;;;2086821;28;20106;-68
2021/05/05 00:57:51;;;;;;;4.13;1.70;;;9.40;99.90;;;;;;2079777;28;20606;-68
2021/05/05 00:58:52;;;;;;;3.25;1.67;;;9.40;99.90;;;;;;2079937;28;20021;-68
2021/05/05 00:59:52;;;;;;;3.22;1.58;;;9.50;99.90;;;;;;2084553;28;20053;-68
2021/05/05 01:00:53;;;;;;;2.65;1.38;;;9.40;99.90;;;;;;2087960;28;20025;-68
2021/05/05 01:01:54;;;;;;;2.45;1.55;;;9.50;99.90;;;;;;2079304;28;20080;-69
2021/05/05 01:02:54;;;;;;;4.45;1.77;;;9.40;99.90;;;;;;2082997;28;20021;-69
2021/05/05 01:03:55;;;;;;;3.28;1.40;;;9.50;99.90;;;;;;2087919;28;20048;-69
2021/05/05 01:04:55;;;;;;;3.08;1.58;;;9.50;99.90;;;;;;2087877;28;20096;-68
2021/05/05 01:05:57;;;;;;;4.35;1.63;;;9.50;99.90;;;;;;2088414;28;20103;-69
2021/05/05 01:06:57;;;;;;;3.88;1.48;;;9.50;99.90;;;;;;2084406;28;20032;-69
2021/05/05 01:07:58;;;;;;;2.70;1.65;;;9.50;99.90;;;;;;2085068;28;20108;-69
2021/05/05 01:08:58;;;;;;;3.08;1.40;;;9.40;99.90;;;;;;2088017;28;20021;-69
2021/05/05 01:09:59;;;;;;;4.18;1.50;;;9.50;99.90;;;;;;2088019;28;20370;-69
2021/05/05 01:11:01;;;;;;;2.33;1.23;;;9.40;99.90;;;;;;2087936;28;20025;-69
2021/05/05 01:12:01;;;;;;;2.20;1.20;;;9.40;99.90;;;;;;2082666;28;20490;-69
2021/05/05 01:13:02;;;;;;;2.60;1.77;;;9.40;99.90;;;;;;2086515;28;20029;-69
2021/05/05 01:14:03;;;;;;;3.17;1.60;;;9.40;99.90;;;;;;2082168;28;20472;-69
2021/05/05 01:15:05;;;;;;;3.35;1.52;;;9.40;99.90;;;;;;2079611;28;20079;-69
2021/05/05 01:16:05;;;;;;;2.50;1.48;;;9.40;99.90;;;;;;2085438;28;20035;-69
2021/05/05 01:17:08;;;;;;;2.80;1.70;;;9.40;99.90;;;;;;2082340;28;20491;-69
2021/05/05 01:18:09;;;;;;;4.05;1.60;;;9.40;99.90;;;;;;2079816;28;20040;-69
2021/05/05 01:19:09;;;;;;;4.88;1.70;;;9.40;99.90;;;;;;2083586;28;20052;-69
2021/05/05 01:20:10;;;;;;;3.75;1.60;;;9.40;99.90;;;;;;2087973;28;20029;-69
2021/05/05 01:21:11;;;;;;;2.70;1.35;;;9.40;99.90;;;;;;2087934;28;20032;-69
2021/05/05 01:22:12;;;;;;;5.53;1.98;;;9.40;99.90;;;;;;2087267;28;20028;-69
2021/05/05 01:23:12;;;;;;;4.50;1.75;;;9.40;99.90;;;;;;2087392;28;20056;-69
2021/05/05 01:24:13;;;;;;;2.47;1.77;;;9.40;99.90;;;;;;2087919;28;20039;-68
2021/05/05 01:25:17;;;;;;;1.98;1.75;;;9.40;99.90;;;;;;2087752;28;20033;-69
2021/05/05 01:26:17;;;;;;;1.88;1.40;;;9.40;99.90;;;;;;2086991;28;20052;-69
2021/05/05 01:27:18;;;;;;;1.75;1.48;;;9.30;99.90;;;;;;2083740;28;20029;-69
2021/05/05 01:28:19;;;;;;;3.08;1.52;;;9.30;99.90;;;;;;2087844;28;20565;-69
2021/05/05 01:29:20;;;;;;;2.25;1.73;;;9.30;99.90;;;;;;2087843;28;20082;-69
2021/05/05 01:30:22;;;;;;;2.10;1.58;;;9.30;99.90;;;;;;2085013;28;20087;-69
2021/05/05 01:31:23;;;;;;;2.08;1.50;;;9.30;99.90;;;;;;2077418;28;20036;-68
2021/05/05 01:32:25;;;;;;;2.28;1.80;;;9.30;99.90;;;;;;2078965;28;20096;-69
2021/05/05 01:33:26;;;;;;;2.50;1.27;;;9.20;99.90;;;;;;2081046;28;20018;-69
2021/05/05 01:34:27;;;;;;;2.63;1.30;;;9.20;99.90;;;;;;2088121;28;20031;-69
2021/05/05 01:35:27;;;;;;;2.22;1.20;;;9.20;99.90;;;;;;2085684;28;20029;-69
2021/05/05 01:36:32;;;;;;;4.68;1.48;;;9.20;99.90;;;;;;2087873;28;20461;-69
2021/05/05 01:37:33;;;;;;;2.40;1.13;;;9.20;99.90;;;;;;2070877;28;20068;-69
2021/05/05 01:38:34;;;;;;;2.63;1.38;;;9.20;99.90;;;;;;2079135;28;20021;-69
2021/05/05 01:39:35;;;;;;;2.28;1.30;;;9.20;99.90;;;;;;2082195;28;20064;-69
2021/05/05 01:40:36;;;;;;;1.63;1.42;;;9.20;99.90;;;;;;2086761;28;20048;-69
2021/05/05 01:41:36;;;;;;;4.03;1.92;;;9.10;99.90;;;;;;2082025;28;20040;-69
2021/05/05 01:42:37;;;;;;;4.35;1.77;;;9.20;99.90;;;;;;2079026;28;20036;-69
2021/05/05 01:43:38;;;;;;;2.90;1.30;;;9.20;99.90;;;;;;2086207;28;20040;-69
2021/05/05 01:44:40;;;;;;;4.30;1.50;;;9.20;99.90;;;;;;2089579;28;20025;-69
2021/05/05 01:45:41;;;;;;;2.30;1.40;;;9.20;99.90;;;;;;2089499;28;20472;-69
2021/05/05 01:46:49;;;;;;;2.40;1.60;;;9.20;99.90;;;;;;2088567;28;20025;-69
2021/05/05 01:47:57;;;;;;;2.90;0.95;;;9.20;99.90;;;;;;2077497;28;20026;-69
2021/05/05 01:48:58;;;;;;;1.55;1.25;;;9.20;99.90;;;;;;2081614;28;20033;-69
2021/05/05 01:49:58;;;;;;;2.83;1.50;;;9.20;99.90;;;;;;2081159;28;20465;-69
2021/05/05 01:50:59;;;;;;;3.35;1.20;;;9.20;99.90;;;;;;2081313;28;20022;-69
2021/05/05 01:52:04;;;;;;;1.80;1.60;;;9.10;99.90;;;;;;2080047;28;20022;-69
2021/05/05 01:53:05;;;;;;;3.40;1.27;;;9.20;99.90;;;;;;2080366;28;20022;-69
2021/05/05 01:54:06;;;;;;;1.55;0.88;;;9.20;99.90;;;;;;2080910;28;20358;-69
2021/05/05 01:55:08;;;;;;;1.98;1.50;;;9.10;99.90;;;;;;2088233;28;20044;-69
2021/05/05 01:56:09;;;;;;;1.92;0.98;;;9.10;99.90;;;;;;2089333;28;20029;-69
2021/05/05 01:57:27;;;;;;;3.17;0.90;;;9.20;99.90;;;;;;2089563;28;20025;-69
2021/05/05 01:58:28;;;;;;;2.65;1.10;;;9.10;99.90;;;;;;2089302;28;20024;-69
2021/05/05 01:59:28;;;;;;;2.42;1.38;;;9.10;99.90;;;;;;2089435;28;20056;-69
2021/05/05 02:00:31;;;;;;;1.58;1.00;;;9.10;99.90;;;;;;2088634;28;20026;-69
2021/05/05 02:01:31;;;;;;;3.03;1.17;;;9.20;99.90;;;;;;2084163;28;20036;-69
2021/05/05 02:02:32;;;;;;;2.35;0.98;;;9.20;99.90;;;;;;2082543;28;20038;-69
2021/05/05 02:03:32;;;;;;;1.55;1.10;;;9.20;99.90;;;;;;2090678;28;20401;-69
2021/05/05 02:04:33;;;;;;;2.42;1.30;;;9.20;99.90;;;;;;2089922;28;20017;-69
2021/05/05 02:05:34;;;;;;;1.60;1.23;;;9.20;99.90;;;;;;2082706;28;20502;-69
2021/05/05 02:06:34;;;;;;;2.70;1.27;;;9.10;99.90;;;;;;2089366;28;20028;-69
2021/05/05 02:07:36;;;;;;;2.00;1.20;;;9.20;99.90;;;;;;2084855;28;20041;-69
2021/05/05 02:08:37;;;;;;;3.67;1.90;;;9.20;99.90;;;;;;2090757;28;20057;-69
2021/05/05 02:09:38;;;;;;;2.05;1.27;;;9.20;99.90;;;;;;2090866;28;20473;-69
2021/05/05 02:10:40;;;;;;;1.67;1.48;;;9.20;99.90;;;;;;2090639;28;20423;-69
2021/05/05 02:11:41;;;;;;;2.00;1.65;;;9.20;99.90;;;;;;2085282;28;20025;-69
2021/05/05 02:12:42;;;;;;;5.32;1.98;;;9.20;99.90;;;;;;2081665;28;20065;-69
2021/05/05 02:13:42;;;;;;;3.60;2.28;;;9.20;99.90;;;;;;2082502;28;20025;-69
2021/05/05 02:14:46;;;;;;;4.25;1.80;;;9.20;99.90;;;;;;2089729;28;20107;-69
2021/05/05 02:15:47;;;;;;;5.30;2.45;;;9.30;99.90;;;;;;2090779;28;20419;-69
2021/05/05 02:16:52;;;;;;;5.25;2.30;;;9.20;99.90;;;;;;2090598;28;20118;-69
2021/05/05 02:17:53;;;;;;;3.97;2.38;;;9.30;99.90;;;;;;2090790;28;20059;-69
2021/05/05 02:18:54;;;;;;;4.47;2.40;;;9.30;99.90;;;;;;2090455;28;20036;-69
2021/05/05 02:19:55;;;;;;;3.28;2.10;;;9.20;99.90;;;;;;2090788;28;20104;-69
2021/05/05 02:20:55;;;;;;;2.45;2.25;;;9.20;99.90;;;;;;2090634;28;20618;-69
2021/05/05 02:21:56;;;;;;;2.97;2.40;;;9.30;99.90;;;;;;2083470;28;20430;-69
2021/05/05 02:22:56;;;;;;;3.05;2.65;;;9.30;99.90;;;;;;2081557;28;20432;-69
2021/05/05 02:23:57;;;;;;;5.05;2.88;;;9.30;99.90;;;;;;2085532;28;20049;-69
2021/05/05 02:24:57;;;;;;;4.55;2.80;;;9.30;99.90;;;;;;2090553;28;20028;-69
2021/05/05 02:25:58;;;;;;;3.95;3.10;;;9.30;99.90;;;;;;2084301;28;20029;-69
2021/05/05 02:26:59;;;;;;;4.38;3.20;;;9.30;99.90;;;;;;2082122;28;20388;-69
2021/05/05 02:27:59;;;;;;;5.88;3.05;;;9.30;99.90;;;;;;2082338;28;20029;-69
2021/05/05 02:29:00;;;;;;;3.63;2.60;;;9.30;99.90;;;;;;2086915;28;20094;-69
2021/05/05 02:30:00;;;;;;;5.07;3.17;;;9.30;99.90;;;;;;2090549;28;20021;-69
2021/05/05 02:31:01;;;;;;;4.45;2.80;;;9.20;99.90;;;;;;2090211;28;20044;-69
2021/05/05 02:32:10;;;;;;;5.13;2.60;;;9.20;99.90;;;;;;2083249;28;20033;-69
2021/05/05 02:33:11;;;;;;;4.57;2.63;;;9.20;99.90;;;;;;2082317;28;20030;-69
2021/05/05 02:34:12;;;;;;;3.30;2.95;;;9.20;99.90;;;;;;2089463;28;20023;-69
2021/05/05 02:35:13;;;;;;;12.27;3.00;;;9.20;99.90;;;;;;2090234;28;20036;-69
2021/05/05 02:36:14;;;;;;;4.68;3.42;;;9.20;99.90;;;;;;2090722;28;20017;-69
2021/05/05 02:37:15;;;;;;;4.30;2.90;;;9.20;99.90;;;;;;2090350;28;20028;-69
2021/05/05 02:38:15;;;;;;;5.82;2.60;;;9.20;99.90;;;;;;2090465;28;20045;-69
2021/05/05 02:39:18;;;;;;;5.25;2.50;;;9.30;99.90;;;;;;2084981;28;20021;-69
2021/05/05 02:40:19;;;;;;;4.22;2.83;;;9.20;99.90;;;;;;2086743;28;20017;-69
2021/05/05 02:41:20;;;;;;;4.35;2.70;;;9.20;99.90;;;;;;2088827;28;20025;-69
2021/05/05 02:42:20;;;;;;;3.17;2.65;;;9.20;99.90;;;;;;2081086;28;20057;-69
2021/05/05 02:43:21;;;;;;;6.53;2.72;;;9.20;99.90;;;;;;2082015;28;20036;-69
2021/05/05 02:44:21;;;;;;;3.90;2.90;;;9.20;99.90;;;;;;2082083;28;20067;-69
2021/05/05 02:45:22;;;;;;;3.40;2.65;;;9.20;99.90;;;;;;2082127;28;20031;-69
2021/05/05 02:46:23;;;;;;;4.07;2.95;;;9.20;99.90;;;;;;2083165;28;20087;-69
2021/05/05 02:47:23;;;;;;;4.28;2.70;;;9.20;99.90;;;;;;2090757;28;20111;-69
2021/05/05 02:48:24;;;;;;;4.25;2.95;;;9.10;99.90;;;;;;2090247;28;20166;-69
2021/05/05 02:49:25;;;;;;;3.40;2.85;;;9.10;99.90;;;;;;2090511;28;20028;-69
2021/05/05 02:50:26;;;;;;;4.82;3.15;;;9.10;99.90;;;;;;2090243;28;20445;-69
2021/05/05 02:51:26;;;;;;;3.45;2.95;;;9.20;99.90;;;;;;2088370;28;20401;-69
2021/05/05 02:52:27;;;;;;;3.47;3.13;;;9.10;99.90;;;;;;2081388;28;20048;-69
2021/05/05 02:53:27;;;;;;;4.53;2.88;;;9.10;99.90;;;;;;2082203;28;20037;-69
2021/05/05 02:54:29;;;;;;;5.32;3.20;;;9.10;99.90;;;;;;2082134;28;20380;-69
2021/05/05 02:55:29;;;;;;;4.78;3.03;;;9.10;99.90;;;;;;2089634;28;20108;-69
2021/05/05 02:56:30;;;;;;;3.95;3.08;;;9.10;99.90;;;;;;2089941;28;20029;-69
2021/05/05 02:57:31;;;;;;;3.95;3.13;;;9.10;99.90;;;;;;2083315;28;20173;-69
2021/05/05 02:58:31;;;;;;;3.72;2.72;;;9.10;99.90;;;;;;2085493;28;20037;-69
2021/05/05 02:59:33;;;;;;;4.05;3.08;;;9.10;99.90;;;;;;2085111;28;20346;-69
2021/05/05 03:00:33;;;;;;;5.88;3.28;;;9.00;99.90;;;;;;2082053;28;20030;-69
2021/05/05 03:01:34;;;;;;;3.22;2.55;;;9.00;99.90;;;;;;2082040;28;20488;-69
2021/05/05 03:02:34;;;;;;;3.97;2.47;;;9.00;99.90;;;;;;2080113;28;20167;-69
2021/05/05 03:03:35;;;;;;;4.90;2.67;;;9.00;99.90;;;;;;2081121;28;20428;-69
2021/05/05 03:04:35;;;;;;;2.78;2.22;;;9.00;99.90;;;;;;2085037;28;20025;-69
2021/05/05 03:05:36;;;;;;;2.70;2.08;;;9.00;99.90;;;;;;2089169;28;20078;-69
2021/05/05 03:06:37;;;;;;;3.90;2.20;;;9.00;99.90;;;;;;2088187;28;20041;-69
2021/05/05 03:07:37;;;;;;;2.33;1.90;;;8.90;99.90;;;;;;2083884;28;20862;-69
2021/05/05 03:08:38;;;;;;;4.43;2.40;;;8.90;99.90;;;;;;2089302;28;20029;-69
2021/05/05 03:09:39;;;;;;;3.92;2.63;;;8.90;99.90;;;;;;2089496;28;20040;-69
2021/05/05 03:10:39;;;;;;;3.65;2.42;;;8.90;99.90;;;;;;2088973;28;20047;-69
2021/05/05 03:11:40;;;;;;;4.30;2.20;;;8.90;99.90;;;;;;2085106;28;20025;-69
2021/05/05 03:12:40;;;;;;;4.03;2.20;;;8.90;99.90;;;;;;2079987;28;20590;-69
2021/05/05 03:13:41;;;;;;;2.42;2.22;;;8.90;99.90;;;;;;2080899;28;20021;-69
2021/05/05 03:14:42;;;;;;;4.25;2.13;;;8.90;99.90;;;;;;2083088;28;20033;-69
2021/05/05 03:15:42;;;;;;;3.78;2.38;;;8.80;99.90;;;;;;2083186;28;20082;-69
2021/05/05 03:16:43;;;;;;;7.90;2.00;;;8.80;99.90;;;;;;2088975;28;20025;-69
2021/05/05 03:17:43;;;;;;;3.42;2.08;;;8.80;99.90;;;;;;2088343;28;20025;-69
2021/05/05 03:18:44;;;;;;;4.82;2.58;;;8.80;99.90;;;;;;2088445;28;20048;-69
2021/05/05 03:19:44;;;;;;;3.40;2.33;;;8.80;99.90;;;;;;2088805;28;20025;-69
2021/05/05 03:20:45;;;;;;;2.95;2.60;;;8.80;99.90;;;;;;2088853;28;20526;-69
2021/05/05 03:21:46;;;;;;;3.67;2.20;;;8.80;99.90;;;;;;2084911;28;20021;-69
2021/05/05 03:22:46;;;;;;;2.88;2.15;;;8.80;99.90;;;;;;2079967;28;20091;-69
2021/05/05 03:23:47;;;;;;;2.88;2.13;;;8.80;99.90;;;;;;2082290;28;20397;-69
2021/05/05 03:24:48;;;;;;;3.15;2.08;;;8.80;99.90;;;;;;2085685;28;20029;-69
2021/05/05 03:25:49;;;;;;;2.75;2.55;;;8.80;99.90;;;;;;2080617;28;20048;-69
2021/05/05 03:26:49;;;;;;;3.63;2.42;;;8.80;99.90;;;;;;2080834;28;20030;-69
2021/05/05 03:27:50;;;;;;;3.55;2.53;;;8.80;99.90;;;;;;2088808;28;20067;-69
2021/05/05 03:28:50;;;;;;;2.40;2.20;;;8.80;99.90;;;;;;2088648;28;20100;-69
2021/05/05 03:29:51;;;;;;;6.55;3.17;;;8.70;99.90;;;;;;2088994;28;20021;-69
2021/05/05 03:30:51;;;;;;;2.70;2.30;;;8.80;99.90;;;;;;2083732;28;20029;-69
2021/05/05 03:31:52;;;;;;;3.33;2.20;;;8.80;99.90;;;;;;2081055;28;20017;-69
2021/05/05 03:32:53;;;;;;;3.33;2.17;;;8.70;99.90;;;;;;2079818;28;20029;-69
2021/05/05 03:33:53;;;;;;;4.22;2.60;;;8.70;99.90;;;;;;2083093;28;20473;-69
2021/05/05 03:34:54;;;;;;;3.30;2.15;;;8.70;99.90;;;;;;2079709;28;20033;-69
2021/05/05 03:35:54;;;;;;;4.43;2.30;;;8.70;99.90;;;;;;2088088;28;20084;-69
2021/05/05 03:36:55;;;;;;;3.25;2.10;;;8.70;99.90;;;;;;2089110;28;20029;-69
2021/05/05 03:37:56;;;;;;;2.47;2.10;;;8.70;99.90;;;;;;2087666;28;20096;-69
2021/05/05 03:38:56;;;;;;;4.20;2.50;;;8.70;99.90;;;;;;2085004;28;20025;-69
2021/05/05 03:39:57;;;;;;;5.15;2.25;;;8.70;99.90;;;;;;2081326;28;20040;-69
2021/05/05 03:40:58;;;;;;;3.72;2.40;;;8.70;99.90;;;;;;2087351;28;20087;-69
2021/05/05 03:41:58;;;;;;;3.13;2.28;;;8.70;99.90;;;;;;2085138;28;20292;-69
2021/05/05 03:42:59;;;;;;;5.15;2.55;;;8.70;99.90;;;;;;2088496;28;20044;-69
2021/05/05 03:43:59;;;;;;;3.83;2.40;;;8.70;99.90;;;;;;2088676;28;20012;-69
2021/05/05 03:45:02;;;;;;;5.13;2.58;;;8.70;99.90;;;;;;2088489;28;20108;-69
2021/05/05 03:46:03;;;;;;;4.90;2.50;;;8.70;99.90;;;;;;2087995;28;20083;-70
2021/05/05 03:47:04;;;;;;;3.50;2.42;;;8.70;99.90;;;;;;2088410;28;20021;-69
2021/05/05 03:48:05;;;;;;;2.35;2.00;;;8.70;99.90;;;;;;2088747;28;20075;-69
2021/05/05 03:49:06;;;;;;;4.75;2.72;;;8.70;99.90;;;;;;2088984;28;20032;-69
2021/05/05 03:50:08;;;;;;;3.67;2.50;;;8.70;99.90;;;;;;2085056;28;20028;-69
2021/05/05 03:51:10;;;;;;;3.83;2.70;;;8.60;99.90;;;;;;2080478;28;20053;-69
2021/05/05 03:52:11;;;;;;;4.28;2.80;;;8.60;99.90;;;;;;2079728;28;20380;-69
2021/05/05 03:53:11;;;;;;;5.15;3.22;;;8.60;99.90;;;;;;2080220;28;20096;-69
2021/05/05 03:54:12;;;;;;;3.15;2.85;;;8.60;99.90;;;;;;2080421;28;20124;-69
2021/05/05 03:55:13;;;;;;;3.78;2.63;;;8.60;99.90;;;;;;2086903;28;20033;-69
2021/05/05 03:56:14;;;;;;;3.40;2.78;;;8.50;99.90;;;;;;2088745;28;20733;-69
2021/05/05 03:57:14;;;;;;;3.40;3.10;;;8.50;99.90;;;;;;2088765;28;20426;-69
2021/05/05 03:58:15;;;;;;;4.28;3.45;;;8.50;99.90;;;;;;2088697;28;20025;-69
2021/05/05 03:59:16;;;;;;;4.63;3.33;;;8.50;99.90;;;;;;2088244;28;20403;-69
2021/05/05 04:00:18;;;;;;;5.72;3.05;;;8.50;99.90;;;;;;2084528;28;20029;-69
2021/05/05 04:01:19;;;;;;;5.53;3.72;;;8.60;99.90;;;;;;2080532;28;20029;-69
2021/05/05 04:02:20;;;;;;;3.35;3.05;;;8.60;99.90;;;;;;2079896;28;20607;-69
2021/05/05 04:03:20;;;;;;;5.95;3.40;;;8.60;99.90;;;;;;2087719;28;20033;-69
2021/05/05 04:04:21;;;;;;;3.92;3.30;;;8.60;99.90;;;;;;2088492;28;20036;-69
2021/05/05 04:05:21;;;;;;;4.47;3.53;;;8.60;99.90;;;;;;2088003;28;20369;-69
2021/05/05 04:06:22;;;;;;;5.03;3.20;;;8.60;99.90;;;;;;2086022;28;20112;-69
2021/05/05 04:07:23;;;;;;;4.40;4.00;;;8.60;99.90;;;;;;2082176;28;20021;-69
2021/05/05 04:08:23;;;;;;;3.88;3.50;;;8.60;99.90;;;;;;2088628;28;20033;-69
2021/05/05 04:09:24;;;;;;;3.88;3.28;;;8.60;99.90;;;;;;2088753;28;20354;-69
2021/05/05 04:10:25;;;;;;;5.40;3.83;;;8.60;99.90;;;;;;2082958;28;20103;-69
2021/05/05 04:11:26;;;;;;;4.60;3.92;;;8.60;99.90;;;;;;2086892;28;20021;-69
2021/05/05 04:12:30;;;;;;;7.28;3.90;;;8.60;99.90;;;;;;2087158;28;20035;-69
2021/05/05 04:13:32;;;;;;;4.32;3.78;;;8.60;99.90;;;;;;2088186;28;20025;-69
2021/05/05 04:14:32;;;;;;;4.65;3.70;;;8.60;99.90;;;;;;2088467;28;20112;-69
2021/05/05 04:15:33;;;;;;;4.40;3.58;;;8.60;99.90;;;;;;2088325;28;20025;-69
2021/05/05 04:16:33;;;;;;;5.43;4.20;;;8.60;99.90;;;;;;2088773;28;20123;-69
2021/05/05 04:17:34;;;;;;;6.68;4.18;;;8.60;99.90;;;;;;2088618;28;20027;-69
2021/05/05 04:18:34;;;;;;;5.07;4.65;;;8.60;99.90;;;;;;2088330;28;20036;-69
2021/05/05 04:19:37;;;;;;;5.32;3.58;;;8.60;99.90;;;;;;2088464;28;20032;-69
2021/05/05 04:20:38;;;;;;;4.18;3.88;;;8.60;99.90;;;;;;2081402;28;20025;-69
2021/05/05 04:21:38;;;;;;;5.88;4.07;;;8.60;99.90;;;;;;2080018;28;20479;-69
2021/05/05 04:22:39;;;;;;;4.97;3.97;;;8.60;99.90;;;;;;2085677;28;20102;-69
2021/05/05 04:23:40;;;;;;;5.45;4.40;;;8.50;99.90;;;;;;2088390;28;20029;-69
2021/05/05 04:24:40;;;;;;;8.57;4.35;;;8.50;99.90;;;;;;2088419;28;20115;-69
2021/05/05 04:25:41;;;;;;;7.63;4.22;;;8.50;99.90;;;;;;2088371;28;20108;-69
2021/05/05 04:26:42;;;;;;;5.53;4.97;;;8.50;99.90;;;;;;2088330;28;20025;-69
2021/05/05 04:27:43;;;;;;;6.22;4.15;;;8.50;99.90;;;;;;2087955;28;20037;-69
2021/05/05 04:28:44;;;;;;;5.22;4.70;;;8.50;99.90;;;;;;2084681;28;20578;-69
2021/05/05 04:29:45;;;;;;;4.53;4.10;;;8.50;99.90;;;;;;2080506;28;20029;-69
2021/05/05 04:30:45;;;;;;;5.60;4.40;;;8.50;99.90;;;;;;2081857;28;20017;-69
2021/05/05 04:31:47;;;;;;;10.85;5.35;;;8.50;99.90;;;;;;2080691;28;20029;-69
2021/05/05 04:32:50;;;;;;;6.55;4.75;;;8.60;99.90;;;;;;2076448;28;20077;-69
2021/05/05 04:33:50;;;;;;;6.95;4.43;;;8.50;99.90;;;;;;2080568;28;20037;-69
2021/05/05 04:34:51;;;;;;;6.20;4.68;;;8.60;99.90;;;;;;2075661;28;20060;-69
2021/05/05 04:35:51;;;;;;;5.78;4.82;;;8.50;99.90;;;;;;2077780;28;20393;-69
2021/05/05 04:36:53;;;;;;;9.68;4.57;;;8.50;99.90;;;;;;2077023;28;20014;-69
2021/05/05 04:37:54;;;;;;;7.13;4.90;;;8.50;99.90;;;;;;2076262;28;20036;-69
2021/05/05 04:38:55;;;;;;;6.82;5.43;;;8.50;99.90;;;;;;2073665;28;20032;-69
2021/05/05 04:39:55;;;;;;;5.80;4.68;;;8.60;99.90;;;;;;2072020;28;20096;-70
2021/05/05 04:40:56;;;;;;;8.15;5.93;;;8.60;99.90;;;;;;2072305;28;20496;-69
2021/05/05 04:41:56;;;;;;;5.82;4.60;;;8.50;99.90;;;;;;2073975;28;20029;-69
2021/05/05 04:42:57;;;;;;;6.45;5.05;;;8.50;99.90;;;;;;2073798;28;20499;-69
2021/05/05 04:43:57;;;;;;;7.03;5.10;;;8.50;99.90;;;;;;2074505;28;20026;-69
2021/05/05 04:45:01;;;;;;;6.70;5.40;;;8.60;99.90;;;;;;2073166;28;20025;-69
2021/05/05 04:46:02;;;;;;;6.20;4.95;;;8.50;99.90;;;;;;2072164;28;20080;-69
2021/05/05 04:47:03;;;;;;;5.78;5.20;;;8.50;99.90;;;;;;2076509;28;20026;-69
2021/05/05 04:48:04;;;;;;;6.82;4.80;;;8.50;99.90;;;;;;2080696;28;20010;-69
2021/05/05 04:49:04;;;;;;;7.55;4.80;;;8.50;99.90;;;;;;2078567;28;20576;-69
2021/05/05 04:50:11;;;;;;;6.32;4.60;;;8.50;99.90;;;;;;2076951;28;20017;-69
2021/05/05 04:51:11;;;;;;;7.30;5.13;;;8.50;99.90;;;;;;2071889;28;20022;-69
2021/05/05 04:52:12;;;;;;;7.55;5.30;;;8.50;99.90;;;;;;2070827;28;20022;-69
2021/05/05 04:53:12;;;;;;;9.13;5.15;;;8.50;99.90;;;;;;2074012;28;20031;-69
2021/05/05 04:54:13;;;;;;;6.07;4.63;;;8.50;99.90;;;;;;2073474;28;20021;-69
2021/05/05 04:55:14;;;;;;;7.13;5.13;;;8.60;99.90;;;;;;2080991;28;20021;-69
2021/05/05 04:56:15;;;;;;;8.52;5.97;;;8.60;99.90;;;;;;2077535;28;20385;-69
2021/05/05 04:57:16;;;;;;;8.77;6.10;;;8.60;99.90;;;;;;2072084;28;20022;-69
2021/05/05 04:58:16;;;;;;;8.55;5.53;;;8.60;99.90;;;;;;2074674;28;20029;-69
2021/05/05 04:59:17;;;;;;;10.48;6.15;;;8.60;99.90;;;;;;2073577;28;20165;-69
2021/05/05 05:00:18;;;;;;;7.70;6.38;;;8.60;99.90;;;;;;2081665;28;20052;-69
2021/05/05 05:01:19;;;;;;;7.85;7.00;;;8.60;99.90;;;;;;2079625;28;20026;-69
2021/05/05 05:02:20;;;;;;;9.50;6.38;;;8.60;99.90;;;;;;2079399;28;20102;-69
2021/05/05 05:03:20;;;;;;;6.75;6.10;;;8.60;99.90;;;;;;2081678;28;20473;-69
2021/05/05 05:04:21;;;;;;;9.82;6.68;;;8.60;99.90;;;;;;2081510;28;20132;-69
2021/05/05 05:05:22;;;;;;;7.72;6.13;;;8.60;99.90;;;;;;2079452;28;20092;-69
2021/05/05 05:06:23;;;;;;;10.52;6.40;;;8.60;99.90;;;;;;2079697;28;20438;-69
2021/05/05 05:07:23;;;;;;;8.52;6.20;;;8.60;99.90;;;;;;2078798;28;20930;-69
2021/05/05 05:08:24;;;;;;;8.50;6.15;;;8.60;99.90;;;;;;2076980;28;20030;-69
2021/05/05 05:09:25;;;;;;;9.25;7.00;;;8.60;99.90;;;;;;2078928;28;20022;-69
2021/05/05 05:10:25;;;;;;;12.52;7.15;;;8.60;99.90;;;;;;2079569;28;20091;-69
2021/05/05 05:11:26;;;;;;;8.18;6.95;;;8.60;99.90;;;;;;2081048;28;20432;-69
2021/05/05 05:12:26;;;;;;;7.65;6.65;;;8.70;99.90;;;;;;2077875;28;20623;-68
2021/05/05 05:13:27;;;;;;;10.95;7.35;;;8.70;99.90;;;;;;2079729;28;20022;-69
2021/05/05 05:14:27;;;;;;;11.52;6.88;;;8.70;99.90;;;;;;2080089;28;20021;-69
2021/05/05 05:15:28;;;;;;;8.90;6.30;;;8.70;99.90;;;;;;2079895;28;20160;-69
2021/05/05 05:16:29;;;;;;;10.57;6.72;;;8.70;99.90;;;;;;2082451;28;20476;-69
2021/05/05 05:17:29;;;;;;;8.45;7.25;;;8.70;99.90;;;;;;2080368;28;20033;-69
2021/05/05 05:18:30;;;;;;;12.88;6.97;;;8.70;99.90;;;;;;2078546;28;20041;-69
2021/05/05 05:19:31;;;;;;;9.02;6.75;;;8.70;99.90;;;;;;2075726;28;20033;-69
2021/05/05 05:20:32;;;;;;;8.02;6.72;;;8.70;99.90;;;;;;2083954;28;20025;-69
2021/05/05 05:21:32;;;;;;;7.72;6.80;;;8.70;99.90;;;;;;2082067;28;20026;-69
2021/05/05 05:22:34;;;;;;;10.32;6.80;;;8.80;99.90;;;;;;2080122;28;20389;-69